QTR78 OTHH-OLBA
Flight info
| Callsign | QTR78 |
|---|---|
| Flight time | N/A |
| Altitude | 40000 |
| Route | TULUB B457 NARMI N697 KITOT L550 NOVPA J981 DATOK L550 STEPA L78 DESPO M31 KUKLA |
| Aircraft | B772/H-SDE1E2E3FGHIJ2J3J4J5M1RWXY/LB1D1 |
Departure
| Time | N/A |
|---|---|
| Airport | Hamad International Airport (OTHH) |
Arrival
| Time | 2026-04-30 10:31 |
|---|---|
| Airport | Beirut Rafic Hariri International Airport (OLBA) |
| Time | Latitude | Longitude | Altitude | Speed | Heading |
|---|---|---|---|---|---|
| 2026-04-30 07:11 | 25.93040 | 51.39771 | 17583 ft | 432 kts | 300° |
| 2026-04-30 07:11 | 25.94462 | 51.36806 | 18212 ft | 438 kts | 300° |
| 2026-04-30 07:11 | 25.95913 | 51.33805 | 18823 ft | 443 kts | 300° |
| 2026-04-30 07:12 | 25.97380 | 51.30764 | 19415 ft | 448 kts | 300° |
| 2026-04-30 07:12 | 25.98824 | 51.27724 | 19980 ft | 453 kts | 299° |
| 2026-04-30 07:12 | 26.00286 | 51.24597 | 20542 ft | 457 kts | 299° |
| 2026-04-30 07:12 | 26.01724 | 51.21525 | 22155 ft | 434 kts | 294° |
| 2026-04-30 07:13 | 26.03093 | 51.18586 | 23742 ft | 424 kts | 292° |
| 2026-04-30 07:13 | 26.04438 | 51.15677 | 24765 ft | 424 kts | 292° |
| 2026-04-30 07:13 | 26.05795 | 51.12748 | 25496 ft | 428 kts | 291° |
| 2026-04-30 07:13 | 26.07169 | 51.09787 | 26170 ft | 434 kts | 291° |
| 2026-04-30 07:14 | 26.08561 | 51.06787 | 26817 ft | 439 kts | 291° |
| 2026-04-30 07:14 | 26.09968 | 51.03758 | 27470 ft | 442 kts | 291° |
| 2026-04-30 07:14 | 26.11384 | 51.00706 | 28139 ft | 445 kts | 290° |
| 2026-04-30 07:14 | 26.12732 | 50.97617 | 28806 ft | 444 kts | 288° |
| 2026-04-30 07:15 | 26.14005 | 50.94463 | 29347 ft | 448 kts | 288° |
| 2026-04-30 07:15 | 26.15289 | 50.91283 | 29863 ft | 451 kts | 287° |
| 2026-04-30 07:15 | 26.16590 | 50.88094 | 30382 ft | 455 kts | 288° |
| 2026-04-30 07:15 | 26.17914 | 50.84886 | 30947 ft | 455 kts | 288° |
| 2026-04-30 07:16 | 26.19224 | 50.81683 | 31586 ft | 454 kts | 287° |
| 2026-04-30 07:16 | 26.20529 | 50.78477 | 32183 ft | 454 kts | 287° |
| 2026-04-30 07:16 | 26.21832 | 50.75271 | 32771 ft | 455 kts | 287° |
| 2026-04-30 07:16 | 26.23137 | 50.72059 | 33355 ft | 455 kts | 287° |
| 2026-04-30 07:17 | 26.24426 | 50.68837 | 33927 ft | 453 kts | 285° |
| 2026-04-30 07:17 | 26.25444 | 50.65540 | 34490 ft | 448 kts | 279° |
| 2026-04-30 07:17 | 26.26759 | 50.58853 | 35726 ft | 440 kts | 274° |
| 2026-04-30 07:18 | 26.27205 | 50.55497 | 36334 ft | 438 kts | 272° |
| 2026-04-30 07:18 | 26.27610 | 50.52129 | 36874 ft | 437 kts | 272° |
| 2026-04-30 07:18 | 26.28028 | 50.48779 | 37407 ft | 437 kts | 273° |
| 2026-04-30 07:18 | 26.28459 | 50.45430 | 37935 ft | 436 kts | 273° |
| 2026-04-30 07:19 | 26.28893 | 50.42086 | 38428 ft | 435 kts | 273° |
| 2026-04-30 07:19 | 26.29327 | 50.38748 | 38872 ft | 434 kts | 273° |
| 2026-04-30 07:19 | 26.29763 | 50.35417 | 39348 ft | 433 kts | 274° |
| 2026-04-30 07:19 | 26.30441 | 50.32122 | 39688 ft | 440 kts | 281° |
| 2026-04-30 07:20 | 26.31425 | 50.28879 | 39881 ft | 443 kts | 284° |
| 2026-04-30 07:20 | 26.33740 | 50.22507 | 39881 ft | 443 kts | 286° |
| 2026-04-30 07:21 | 26.36063 | 50.16190 | 39879 ft | 443 kts | 286° |
| 2026-04-30 07:21 | 26.38370 | 50.09823 | 39880 ft | 443 kts | 286° |
| 2026-04-30 07:22 | 26.41832 | 50.00261 | 39889 ft | 443 kts | 285° |
| 2026-04-30 07:22 | 26.44110 | 49.93879 | 39897 ft | 442 kts | 285° |
| 2026-04-30 07:23 | 26.46383 | 49.87498 | 39903 ft | 442 kts | 285° |
| 2026-04-30 07:23 | 26.48655 | 49.81120 | 39905 ft | 442 kts | 285° |
| 2026-04-30 07:24 | 26.50777 | 49.74699 | 39906 ft | 439 kts | 281° |
| 2026-04-30 07:24 | 26.52097 | 49.69519 | 39906 ft | 437 kts | 279° |
| 2026-04-30 07:25 | 26.53625 | 49.62992 | 39906 ft | 436 kts | 279° |
| 2026-04-30 07:25 | 26.55214 | 49.56462 | 39907 ft | 435 kts | 279° |
| 2026-04-30 07:26 | 26.56831 | 49.49938 | 39908 ft | 435 kts | 279° |
| 2026-04-30 07:26 | 26.58455 | 49.43411 | 39909 ft | 436 kts | 279° |
| 2026-04-30 07:27 | 26.60103 | 49.36886 | 39911 ft | 435 kts | 280° |
| 2026-04-30 07:27 | 26.61735 | 49.30419 | 39912 ft | 435 kts | 279° |
| 2026-04-30 07:28 | 26.63366 | 49.23899 | 39914 ft | 434 kts | 279° |
| 2026-04-30 07:28 | 26.64985 | 49.17396 | 39916 ft | 434 kts | 279° |
| 2026-04-30 07:29 | 26.66598 | 49.10898 | 39919 ft | 434 kts | 279° |
| 2026-04-30 07:29 | 26.68212 | 49.04403 | 39921 ft | 434 kts | 279° |
| 2026-04-30 07:30 | 26.70635 | 48.94674 | 39925 ft | 434 kts | 279° |
| 2026-04-30 07:31 | 26.72232 | 48.88167 | 39928 ft | 433 kts | 279° |
| 2026-04-30 07:31 | 26.73825 | 48.81654 | 39931 ft | 433 kts | 279° |
| 2026-04-30 07:32 | 26.75416 | 48.75144 | 39933 ft | 433 kts | 279° |
| 2026-04-30 07:32 | 26.76534 | 48.68583 | 39936 ft | 426 kts | 268° |
| 2026-04-30 07:33 | 26.76506 | 48.61998 | 39932 ft | 425 kts | 263° |
| 2026-04-30 07:33 | 26.76222 | 48.55403 | 39934 ft | 423 kts | 263° |
| 2026-04-30 07:34 | 26.76013 | 48.48846 | 39936 ft | 422 kts | 264° |
| 2026-04-30 07:34 | 26.75817 | 48.42284 | 39939 ft | 422 kts | 264° |
| 2026-04-30 07:35 | 26.75621 | 48.35711 | 39941 ft | 422 kts | 264° |
| 2026-04-30 07:35 | 26.75440 | 48.29136 | 39944 ft | 422 kts | 264° |
| 2026-04-30 07:36 | 26.75271 | 48.22555 | 39946 ft | 423 kts | 264° |
| 2026-04-30 07:36 | 26.75111 | 48.15969 | 39948 ft | 423 kts | 264° |
| 2026-04-30 07:37 | 26.74924 | 48.09382 | 39951 ft | 423 kts | 264° |
| 2026-04-30 07:37 | 26.74731 | 48.02803 | 39953 ft | 423 kts | 264° |
| 2026-04-30 07:38 | 26.74537 | 47.96267 | 39971 ft | 422 kts | 264° |
| 2026-04-30 07:38 | 26.74342 | 47.89705 | 39976 ft | 421 kts | 264° |
| 2026-04-30 07:39 | 26.74402 | 47.83140 | 39979 ft | 423 kts | 268° |
| 2026-04-30 07:39 | 26.74823 | 47.76567 | 39982 ft | 423 kts | 269° |
| 2026-04-30 07:40 | 26.75227 | 47.69986 | 39984 ft | 423 kts | 269° |
| 2026-04-30 07:40 | 26.75570 | 47.63452 | 39986 ft | 423 kts | 268° |
| 2026-04-30 07:41 | 26.75888 | 47.56858 | 39988 ft | 423 kts | 268° |
| 2026-04-30 07:41 | 26.76201 | 47.50280 | 39990 ft | 422 kts | 268° |
| 2026-04-30 07:42 | 26.76511 | 47.43723 | 39992 ft | 422 kts | 268° |
| 2026-04-30 07:42 | 26.76846 | 47.37163 | 39994 ft | 423 kts | 270° |
| 2026-04-30 07:43 | 26.77674 | 47.30668 | 39995 ft | 424 kts | 274° |
| 2026-04-30 07:43 | 26.78773 | 47.24162 | 39997 ft | 425 kts | 274° |
| 2026-04-30 07:44 | 26.79819 | 47.17647 | 39999 ft | 426 kts | 274° |
| 2026-04-30 07:44 | 26.80823 | 47.11117 | 40000 ft | 425 kts | 274° |
| 2026-04-30 07:45 | 26.81812 | 47.04590 | 40007 ft | 424 kts | 274° |
| 2026-04-30 07:45 | 26.82798 | 46.98098 | 40028 ft | 424 kts | 274° |
| 2026-04-30 07:46 | 26.83807 | 46.91584 | 40030 ft | 425 kts | 274° |
| 2026-04-30 07:46 | 26.84797 | 46.85057 | 40030 ft | 424 kts | 274° |
| 2026-04-30 07:47 | 26.85777 | 46.78541 | 40030 ft | 424 kts | 274° |
| 2026-04-30 07:47 | 26.86766 | 46.72031 | 40030 ft | 424 kts | 274° |
| 2026-04-30 07:48 | 26.87746 | 46.65525 | 40028 ft | 424 kts | 273° |
| 2026-04-30 07:48 | 26.88703 | 46.59046 | 40028 ft | 423 kts | 273° |
| 2026-04-30 07:49 | 26.89660 | 46.52528 | 40028 ft | 423 kts | 273° |
| 2026-04-30 07:49 | 26.90614 | 46.46026 | 40027 ft | 423 kts | 273° |
| 2026-04-30 07:50 | 26.91568 | 46.39521 | 40027 ft | 423 kts | 273° |
| 2026-04-30 07:50 | 26.92527 | 46.33050 | 40027 ft | 423 kts | 273° |
| 2026-04-30 07:51 | 26.93490 | 46.26538 | 40027 ft | 423 kts | 273° |
| 2026-04-30 07:51 | 26.94447 | 46.20029 | 40027 ft | 423 kts | 273° |
| 2026-04-30 07:52 | 26.95358 | 46.13813 | 40026 ft | 423 kts | 273° |
| 2026-04-30 07:52 | 26.96304 | 46.07343 | 40031 ft | 422 kts | 273° |
| 2026-04-30 07:53 | 26.97256 | 46.00834 | 40032 ft | 423 kts | 273° |
| 2026-04-30 07:53 | 26.98070 | 45.95428 | 40032 ft | 423 kts | 273° |
| 2026-04-30 07:54 | 26.99046 | 45.88923 | 40031 ft | 422 kts | 273° |
| 2026-04-30 07:54 | 27.00000 | 45.82428 | 40031 ft | 422 kts | 273° |
| 2026-04-30 07:55 | 27.00934 | 45.75937 | 40031 ft | 422 kts | 273° |
| 2026-04-30 07:55 | 27.01865 | 45.69438 | 40031 ft | 422 kts | 273° |
| 2026-04-30 07:56 | 27.02793 | 45.62942 | 40031 ft | 422 kts | 273° |
| 2026-04-30 07:56 | 27.03723 | 45.56445 | 40031 ft | 422 kts | 273° |
| 2026-04-30 07:57 | 27.04633 | 45.49990 | 40031 ft | 422 kts | 273° |
| 2026-04-30 07:57 | 27.05539 | 45.43483 | 40031 ft | 421 kts | 272° |
| 2026-04-30 07:58 | 27.06289 | 45.36954 | 40031 ft | 421 kts | 271° |
| 2026-04-30 07:58 | 27.06983 | 45.30436 | 40031 ft | 420 kts | 271° |
| 2026-04-30 07:59 | 27.07688 | 45.23980 | 40030 ft | 420 kts | 271° |
| 2026-04-30 07:59 | 27.08402 | 45.17474 | 40030 ft | 420 kts | 271° |
| 2026-04-30 08:00 | 27.09481 | 45.07717 | 40030 ft | 420 kts | 272° |
| 2026-04-30 08:00 | 27.10239 | 45.01213 | 40030 ft | 420 kts | 271° |
| 2026-04-30 08:01 | 27.10954 | 44.94702 | 40030 ft | 420 kts | 271° |
| 2026-04-30 08:01 | 27.11657 | 44.88191 | 40030 ft | 420 kts | 271° |
| 2026-04-30 08:02 | 27.12705 | 44.78441 | 40029 ft | 418 kts | 271° |
| 2026-04-30 08:03 | 27.14115 | 44.65501 | 40029 ft | 419 kts | 271° |
| 2026-04-30 08:04 | 27.14807 | 44.59005 | 40029 ft | 419 kts | 271° |
| 2026-04-30 08:04 | 27.15491 | 44.52504 | 40029 ft | 419 kts | 271° |
| 2026-04-30 08:05 | 27.16171 | 44.46009 | 40029 ft | 419 kts | 271° |
| 2026-04-30 08:05 | 27.16853 | 44.39511 | 40028 ft | 419 kts | 271° |
| 2026-04-30 08:06 | 27.17526 | 44.33022 | 40028 ft | 418 kts | 271° |
| 2026-04-30 08:06 | 27.18192 | 44.26524 | 40028 ft | 418 kts | 271° |
| 2026-04-30 08:07 | 27.18853 | 44.20040 | 40028 ft | 418 kts | 271° |
| 2026-04-30 08:07 | 27.19508 | 44.13581 | 40036 ft | 418 kts | 271° |
| 2026-04-30 08:08 | 27.20165 | 44.07094 | 40035 ft | 418 kts | 271° |
| 2026-04-30 08:08 | 27.20864 | 44.00605 | 40035 ft | 418 kts | 271° |
| 2026-04-30 08:09 | 27.21530 | 43.94109 | 40036 ft | 417 kts | 271° |
| 2026-04-30 08:09 | 27.22175 | 43.87637 | 40036 ft | 417 kts | 271° |
| 2026-04-30 08:10 | 27.22817 | 43.81158 | 40037 ft | 417 kts | 271° |
| 2026-04-30 08:10 | 27.23458 | 43.74672 | 40039 ft | 417 kts | 271° |
| 2026-04-30 08:11 | 27.24094 | 43.68241 | 40041 ft | 417 kts | 271° |
| 2026-04-30 08:11 | 27.24734 | 43.61755 | 40042 ft | 417 kts | 271° |
| 2026-04-30 08:12 | 27.25366 | 43.55273 | 40043 ft | 417 kts | 271° |
| 2026-04-30 08:12 | 27.25994 | 43.48794 | 40045 ft | 417 kts | 271° |
| 2026-04-30 08:13 | 27.26620 | 43.42304 | 40049 ft | 417 kts | 271° |
| 2026-04-30 08:13 | 27.27241 | 43.35832 | 40048 ft | 417 kts | 271° |
| 2026-04-30 08:14 | 27.27871 | 43.29392 | 40049 ft | 417 kts | 271° |
| 2026-04-30 08:14 | 27.28519 | 43.22909 | 40051 ft | 417 kts | 271° |
| 2026-04-30 08:15 | 27.29150 | 43.16425 | 40054 ft | 417 kts | 271° |
| 2026-04-30 08:15 | 27.29773 | 43.09937 | 40056 ft | 417 kts | 271° |
| 2026-04-30 08:16 | 27.30391 | 43.03449 | 40059 ft | 417 kts | 271° |
| 2026-04-30 08:16 | 27.31005 | 42.96951 | 40062 ft | 417 kts | 271° |
| 2026-04-30 08:17 | 27.31617 | 42.90455 | 40066 ft | 417 kts | 271° |
| 2026-04-30 08:17 | 27.32221 | 42.84008 | 40069 ft | 417 kts | 271° |
| 2026-04-30 08:18 | 27.32835 | 42.77509 | 40073 ft | 418 kts | 271° |
| 2026-04-30 08:18 | 27.33454 | 42.71011 | 40076 ft | 418 kts | 271° |
| 2026-04-30 08:19 | 27.34050 | 42.64499 | 40080 ft | 418 kts | 271° |
| 2026-04-30 08:19 | 27.34639 | 42.57991 | 40083 ft | 417 kts | 271° |
| 2026-04-30 08:20 | 27.35225 | 42.51496 | 40086 ft | 417 kts | 271° |
| 2026-04-30 08:20 | 27.35807 | 42.45047 | 40090 ft | 417 kts | 271° |
| 2026-04-30 08:21 | 27.36388 | 42.38552 | 40093 ft | 417 kts | 271° |
| 2026-04-30 08:21 | 27.36962 | 42.32056 | 40096 ft | 417 kts | 271° |
| 2026-04-30 08:22 | 27.37533 | 42.25552 | 40099 ft | 417 kts | 271° |
| 2026-04-30 08:22 | 27.38099 | 42.19053 | 40102 ft | 417 kts | 271° |
| 2026-04-30 08:23 | 27.38647 | 42.12747 | 40104 ft | 417 kts | 271° |
| 2026-04-30 08:23 | 27.39199 | 42.06371 | 40106 ft | 417 kts | 271° |
| 2026-04-30 08:24 | 27.39802 | 41.99872 | 40108 ft | 417 kts | 271° |
| 2026-04-30 08:24 | 27.40383 | 41.93363 | 40109 ft | 417 kts | 271° |
| 2026-04-30 08:25 | 27.40936 | 41.86872 | 40111 ft | 417 kts | 271° |
| 2026-04-30 08:25 | 27.41484 | 41.80368 | 40111 ft | 417 kts | 271° |
| 2026-04-30 08:26 | 27.42031 | 41.73875 | 40112 ft | 417 kts | 271° |
| 2026-04-30 08:26 | 27.42637 | 41.67421 | 40112 ft | 418 kts | 274° |
| 2026-04-30 08:27 | 27.43816 | 41.60985 | 40112 ft | 420 kts | 278° |
| 2026-04-30 08:27 | 27.45234 | 41.54593 | 40112 ft | 421 kts | 278° |
| 2026-04-30 08:28 | 27.46581 | 41.48214 | 40111 ft | 421 kts | 277° |
| 2026-04-30 08:28 | 27.47896 | 41.41784 | 40111 ft | 421 kts | 277° |
| 2026-04-30 08:29 | 27.49199 | 41.35358 | 40111 ft | 420 kts | 277° |
| 2026-04-30 08:29 | 27.50513 | 41.28938 | 40110 ft | 421 kts | 278° |
| 2026-04-30 08:30 | 27.51852 | 41.22516 | 40110 ft | 421 kts | 277° |
| 2026-04-30 08:30 | 27.53149 | 41.16085 | 40109 ft | 421 kts | 277° |
| 2026-04-30 08:31 | 27.54428 | 41.09691 | 40108 ft | 420 kts | 277° |
| 2026-04-30 08:31 | 27.55710 | 41.03266 | 40107 ft | 420 kts | 277° |
| 2026-04-30 08:32 | 27.56992 | 40.96848 | 40105 ft | 420 kts | 277° |
| 2026-04-30 08:32 | 27.58270 | 40.90427 | 40104 ft | 420 kts | 277° |
| 2026-04-30 08:33 | 27.59543 | 40.83998 | 40104 ft | 419 kts | 277° |
| 2026-04-30 08:33 | 27.60807 | 40.77583 | 40104 ft | 419 kts | 277° |
| 2026-04-30 08:34 | 27.62068 | 40.71162 | 40103 ft | 419 kts | 277° |
| 2026-04-30 08:34 | 27.63325 | 40.64746 | 40101 ft | 419 kts | 277° |
| 2026-04-30 08:35 | 27.64573 | 40.58355 | 40100 ft | 419 kts | 277° |
| 2026-04-30 08:35 | 27.65857 | 40.51941 | 40099 ft | 419 kts | 277° |
| 2026-04-30 08:36 | 27.67133 | 40.45518 | 40098 ft | 419 kts | 277° |
| 2026-04-30 08:36 | 27.68395 | 40.39095 | 40096 ft | 419 kts | 277° |
| 2026-04-30 08:37 | 27.69438 | 40.33757 | 40095 ft | 419 kts | 277° |
| 2026-04-30 08:37 | 27.70892 | 40.26288 | 40094 ft | 419 kts | 277° |
| 2026-04-30 08:38 | 27.72139 | 40.19862 | 40092 ft | 419 kts | 277° |
| 2026-04-30 08:38 | 27.73384 | 40.13430 | 40091 ft | 419 kts | 277° |
| 2026-04-30 08:39 | 27.74414 | 40.08089 | 40089 ft | 419 kts | 277° |
| 2026-04-30 08:39 | 27.75651 | 40.01668 | 40088 ft | 418 kts | 277° |
| 2026-04-30 08:40 | 27.76886 | 39.95239 | 40086 ft | 418 kts | 277° |
| 2026-04-30 08:40 | 27.78116 | 39.88814 | 40084 ft | 418 kts | 277° |
| 2026-04-30 08:41 | 27.79343 | 39.82391 | 40083 ft | 418 kts | 277° |
| 2026-04-30 08:41 | 27.80568 | 39.75962 | 40081 ft | 418 kts | 277° |
| 2026-04-30 08:42 | 27.81783 | 39.69572 | 40080 ft | 418 kts | 277° |
| 2026-04-30 08:42 | 27.83000 | 39.63150 | 40078 ft | 418 kts | 277° |
| 2026-04-30 08:43 | 27.84215 | 39.56721 | 40077 ft | 418 kts | 277° |
| 2026-04-30 08:43 | 27.85425 | 39.50302 | 40075 ft | 418 kts | 277° |
| 2026-04-30 08:44 | 27.86635 | 39.43874 | 40073 ft | 418 kts | 277° |
| 2026-04-30 08:44 | 27.87863 | 39.37448 | 40072 ft | 417 kts | 277° |
| 2026-04-30 08:45 | 27.89062 | 39.31026 | 40070 ft | 417 kts | 277° |
| 2026-04-30 08:45 | 27.90244 | 39.24646 | 40069 ft | 418 kts | 277° |
| 2026-04-30 08:46 | 27.91432 | 39.18215 | 40067 ft | 417 kts | 277° |
| 2026-04-30 08:46 | 27.92619 | 39.11789 | 40066 ft | 417 kts | 277° |
| 2026-04-30 08:47 | 27.93915 | 39.05376 | 40064 ft | 418 kts | 281° |
| 2026-04-30 08:47 | 27.95637 | 38.99080 | 40063 ft | 419 kts | 283° |
| 2026-04-30 08:48 | 27.97462 | 38.92812 | 40062 ft | 420 kts | 283° |
| 2026-04-30 08:48 | 27.99238 | 38.86512 | 40061 ft | 420 kts | 282° |
| 2026-04-30 08:49 | 28.00988 | 38.80196 | 40060 ft | 421 kts | 283° |
| 2026-04-30 08:49 | 28.02718 | 38.73904 | 40059 ft | 422 kts | 283° |
| 2026-04-30 08:50 | 28.04478 | 38.67556 | 40059 ft | 423 kts | 283° |
| 2026-04-30 08:50 | 28.06241 | 38.61226 | 40058 ft | 421 kts | 283° |
| 2026-04-30 08:51 | 28.07987 | 38.54891 | 40057 ft | 421 kts | 283° |
| 2026-04-30 08:51 | 28.09724 | 38.48555 | 40057 ft | 421 kts | 283° |
| 2026-04-30 08:52 | 28.11458 | 38.42209 | 40056 ft | 421 kts | 283° |
| 2026-04-30 08:52 | 28.13175 | 38.35907 | 40056 ft | 421 kts | 283° |
| 2026-04-30 08:53 | 28.14899 | 38.29570 | 40055 ft | 420 kts | 283° |
| 2026-04-30 08:53 | 28.16617 | 38.23237 | 40055 ft | 420 kts | 283° |
| 2026-04-30 08:54 | 28.18332 | 38.16903 | 40055 ft | 420 kts | 283° |
| 2026-04-30 08:54 | 28.20045 | 38.10565 | 40053 ft | 420 kts | 283° |
| 2026-04-30 08:55 | 28.21756 | 38.04224 | 40035 ft | 420 kts | 283° |
| 2026-04-30 08:55 | 28.23462 | 37.97884 | 40035 ft | 420 kts | 283° |
| 2026-04-30 08:56 | 28.25165 | 37.91544 | 40036 ft | 420 kts | 283° |
| 2026-04-30 08:56 | 28.26866 | 37.85200 | 40037 ft | 420 kts | 283° |
| 2026-04-30 08:57 | 28.28566 | 37.78846 | 40037 ft | 421 kts | 283° |
| 2026-04-30 08:57 | 28.30263 | 37.72487 | 40038 ft | 421 kts | 283° |
| 2026-04-30 08:58 | 28.31959 | 37.66122 | 40033 ft | 421 kts | 283° |
| 2026-04-30 08:58 | 28.33649 | 37.59765 | 40034 ft | 420 kts | 283° |
| 2026-04-30 08:59 | 28.35337 | 37.53405 | 40035 ft | 421 kts | 283° |
| 2026-04-30 08:59 | 28.37023 | 37.47038 | 40036 ft | 421 kts | 283° |
| 2026-04-30 09:00 | 28.38697 | 37.40700 | 40049 ft | 421 kts | 283° |
| 2026-04-30 09:00 | 28.40380 | 37.34320 | 40050 ft | 422 kts | 283° |
| 2026-04-30 09:01 | 28.42071 | 37.27931 | 40051 ft | 422 kts | 283° |
| 2026-04-30 09:01 | 28.43764 | 37.21545 | 40048 ft | 422 kts | 283° |
| 2026-04-30 09:02 | 28.46266 | 37.11955 | 40049 ft | 422 kts | 283° |
| 2026-04-30 09:02 | 28.47917 | 37.05601 | 40050 ft | 422 kts | 283° |
| 2026-04-30 09:03 | 28.49579 | 36.99205 | 40051 ft | 422 kts | 283° |
| 2026-04-30 09:03 | 28.51242 | 36.92807 | 40051 ft | 422 kts | 283° |
| 2026-04-30 09:04 | 28.52922 | 36.86425 | 40051 ft | 421 kts | 283° |
| 2026-04-30 09:04 | 28.54593 | 36.80041 | 40052 ft | 421 kts | 283° |
| 2026-04-30 09:05 | 28.56252 | 36.73648 | 40052 ft | 421 kts | 283° |
| 2026-04-30 09:05 | 28.57895 | 36.67250 | 40052 ft | 421 kts | 283° |
| 2026-04-30 09:06 | 28.59536 | 36.60853 | 40052 ft | 421 kts | 283° |
| 2026-04-30 09:06 | 28.61178 | 36.54458 | 40048 ft | 421 kts | 283° |
| 2026-04-30 09:07 | 28.62850 | 36.48074 | 40046 ft | 420 kts | 283° |
| 2026-04-30 09:07 | 28.64493 | 36.41681 | 40043 ft | 420 kts | 283° |
| 2026-04-30 09:08 | 28.66126 | 36.35288 | 40040 ft | 420 kts | 283° |
| 2026-04-30 09:08 | 28.67747 | 36.28930 | 40036 ft | 420 kts | 283° |
| 2026-04-30 09:09 | 28.69388 | 36.22491 | 40032 ft | 420 kts | 283° |
| 2026-04-30 09:09 | 28.71003 | 36.16129 | 40027 ft | 420 kts | 283° |
| 2026-04-30 09:10 | 28.72613 | 36.09732 | 40022 ft | 420 kts | 283° |
| 2026-04-30 09:10 | 28.74219 | 36.03323 | 40017 ft | 420 kts | 283° |
| 2026-04-30 09:11 | 28.75819 | 35.96921 | 40013 ft | 420 kts | 283° |
| 2026-04-30 09:11 | 28.77421 | 35.90494 | 40010 ft | 420 kts | 283° |
| 2026-04-30 09:12 | 28.79015 | 35.84088 | 40006 ft | 420 kts | 283° |
| 2026-04-30 09:12 | 28.80631 | 35.77682 | 40003 ft | 420 kts | 283° |
| 2026-04-30 09:13 | 28.82253 | 35.71263 | 39999 ft | 418 kts | 283° |
| 2026-04-30 09:13 | 28.83843 | 35.64898 | 39971 ft | 417 kts | 282° |
| 2026-04-30 09:14 | 28.85423 | 35.58542 | 39969 ft | 416 kts | 282° |
| 2026-04-30 09:14 | 28.86991 | 35.52216 | 39968 ft | 417 kts | 282° |
| 2026-04-30 09:15 | 28.88566 | 35.45840 | 39968 ft | 417 kts | 282° |
| 2026-04-30 09:15 | 28.90138 | 35.39469 | 39968 ft | 418 kts | 282° |
| 2026-04-30 09:16 | 28.91708 | 35.33086 | 39969 ft | 418 kts | 282° |
| 2026-04-30 09:16 | 28.93276 | 35.26701 | 39967 ft | 418 kts | 282° |
| 2026-04-30 09:17 | 28.94846 | 35.20295 | 39968 ft | 418 kts | 282° |
| 2026-04-30 09:17 | 28.96433 | 35.13903 | 39970 ft | 418 kts | 282° |
| 2026-04-30 09:18 | 28.97984 | 35.07537 | 39972 ft | 418 kts | 282° |
| 2026-04-30 09:18 | 28.99544 | 35.01089 | 39974 ft | 418 kts | 282° |
| 2026-04-30 09:19 | 29.01083 | 34.94716 | 39975 ft | 418 kts | 282° |
| 2026-04-30 09:19 | 29.02633 | 34.88298 | 39976 ft | 419 kts | 282° |
| 2026-04-30 09:20 | 29.03520 | 34.81754 | 39978 ft | 416 kts | 270° |
| 2026-04-30 09:20 | 29.03370 | 34.75145 | 39977 ft | 416 kts | 267° |
| 2026-04-30 09:21 | 29.03254 | 34.69653 | 39974 ft | 415 kts | 271° |
| 2026-04-30 09:21 | 29.03785 | 34.66413 | 39988 ft | 418 kts | 287° |
| 2026-04-30 09:21 | 29.05872 | 34.62651 | 39981 ft | 430 kts | 309° |
| 2026-04-30 09:22 | 29.08259 | 34.60563 | 39979 ft | 447 kts | 322° |
| 2026-04-30 09:22 | 29.11000 | 34.58863 | 39978 ft | 448 kts | 325° |
| 2026-04-30 09:22 | 29.15647 | 34.56108 | 39982 ft | 450 kts | 323° |
| 2026-04-30 09:23 | 29.21114 | 34.52558 | 39984 ft | 453 kts | 321° |
| 2026-04-30 09:23 | 29.26655 | 34.49031 | 39985 ft | 454 kts | 322° |
| 2026-04-30 09:24 | 29.31956 | 34.45255 | 39987 ft | 449 kts | 319° |
| 2026-04-30 09:24 | 29.37174 | 34.41314 | 39984 ft | 448 kts | 319° |
| 2026-04-30 09:25 | 29.42379 | 34.37344 | 39987 ft | 448 kts | 319° |
| 2026-04-30 09:25 | 29.47572 | 34.33369 | 39995 ft | 449 kts | 319° |
| 2026-04-30 09:26 | 29.52771 | 34.29383 | 39996 ft | 449 kts | 319° |
| 2026-04-30 09:26 | 29.57975 | 34.25393 | 39997 ft | 450 kts | 319° |
| 2026-04-30 09:27 | 29.63270 | 34.21533 | 39993 ft | 453 kts | 323° |
| 2026-04-30 09:27 | 29.68822 | 34.18150 | 39986 ft | 456 kts | 326° |
| 2026-04-30 09:28 | 29.74487 | 34.14832 | 39985 ft | 457 kts | 325° |
| 2026-04-30 09:28 | 29.80124 | 34.11444 | 39986 ft | 457 kts | 325° |
| 2026-04-30 09:29 | 29.85751 | 34.08023 | 39989 ft | 457 kts | 325° |
| 2026-04-30 09:29 | 29.91370 | 34.04592 | 39992 ft | 457 kts | 325° |
| 2026-04-30 09:30 | 29.97000 | 34.01173 | 39996 ft | 457 kts | 325° |
| 2026-04-30 09:30 | 30.02617 | 33.97744 | 40000 ft | 457 kts | 325° |
| 2026-04-30 09:31 | 30.08236 | 33.94303 | 40004 ft | 457 kts | 325° |
| 2026-04-30 09:31 | 30.13806 | 33.90885 | 40008 ft | 457 kts | 325° |
| 2026-04-30 09:32 | 30.19420 | 33.87436 | 40012 ft | 457 kts | 324° |
| 2026-04-30 09:32 | 30.25032 | 33.83982 | 40023 ft | 456 kts | 324° |
| 2026-04-30 09:33 | 30.30638 | 33.80528 | 40035 ft | 456 kts | 324° |
| 2026-04-30 09:33 | 30.36237 | 33.77073 | 40039 ft | 456 kts | 324° |
| 2026-04-30 09:34 | 30.41826 | 33.73621 | 40041 ft | 455 kts | 324° |
| 2026-04-30 09:34 | 30.47421 | 33.70159 | 40043 ft | 455 kts | 325° |
| 2026-04-30 09:35 | 30.53020 | 33.66691 | 40045 ft | 456 kts | 325° |
| 2026-04-30 09:35 | 30.58606 | 33.63226 | 40047 ft | 455 kts | 325° |
| 2026-04-30 09:36 | 30.64191 | 33.59758 | 40050 ft | 455 kts | 325° |
| 2026-04-30 09:36 | 30.69742 | 33.56306 | 40051 ft | 455 kts | 325° |
| 2026-04-30 09:37 | 30.75325 | 33.52829 | 40051 ft | 455 kts | 325° |
| 2026-04-30 09:37 | 30.80902 | 33.49352 | 40052 ft | 454 kts | 325° |
| 2026-04-30 09:38 | 30.86482 | 33.45868 | 40052 ft | 455 kts | 325° |
| 2026-04-30 09:38 | 30.92070 | 33.42374 | 40053 ft | 455 kts | 325° |
| 2026-04-30 09:39 | 30.97606 | 33.38908 | 40053 ft | 454 kts | 325° |
| 2026-04-30 09:39 | 31.03172 | 33.35419 | 40054 ft | 454 kts | 325° |
| 2026-04-30 09:40 | 31.08738 | 33.31928 | 40056 ft | 454 kts | 325° |
| 2026-04-30 09:40 | 31.14323 | 33.28434 | 40057 ft | 454 kts | 325° |
| 2026-04-30 09:41 | 31.19875 | 33.24935 | 40057 ft | 453 kts | 325° |
| 2026-04-30 09:41 | 31.25424 | 33.21431 | 40058 ft | 453 kts | 325° |
| 2026-04-30 09:42 | 31.30939 | 33.17945 | 40060 ft | 453 kts | 325° |
| 2026-04-30 09:42 | 31.36617 | 33.14707 | 40062 ft | 458 kts | 334° |
| 2026-04-30 09:43 | 31.42976 | 33.13470 | 40065 ft | 473 kts | 352° |
| 2026-04-30 09:43 | 31.49622 | 33.13551 | 40063 ft | 479 kts | 353° |
| 2026-04-30 09:44 | 31.56296 | 33.13363 | 40062 ft | 480 kts | 351° |
| 2026-04-30 09:44 | 31.62954 | 33.13003 | 40062 ft | 477 kts | 350° |
| 2026-04-30 09:45 | 31.69586 | 33.12666 | 40062 ft | 477 kts | 351° |
| 2026-04-30 09:45 | 31.76218 | 33.12334 | 40062 ft | 477 kts | 351° |
| 2026-04-30 09:46 | 31.82851 | 33.12001 | 40061 ft | 477 kts | 350° |
| 2026-04-30 09:46 | 31.89455 | 33.11662 | 40061 ft | 477 kts | 350° |
| 2026-04-30 09:47 | 31.96093 | 33.11322 | 40060 ft | 477 kts | 350° |
| 2026-04-30 09:47 | 32.02740 | 33.10979 | 40061 ft | 477 kts | 351° |
| 2026-04-30 09:48 | 32.09329 | 33.10640 | 40065 ft | 477 kts | 351° |
| 2026-04-30 09:48 | 32.15965 | 33.10297 | 40065 ft | 478 kts | 351° |
| 2026-04-30 09:49 | 32.22404 | 33.09089 | 40065 ft | 462 kts | 332° |
| 2026-04-30 09:49 | 32.25181 | 33.07254 | 40063 ft | 455 kts | 316° |
| 2026-04-30 09:49 | 32.27453 | 33.04689 | 40065 ft | 451 kts | 307° |
| 2026-04-30 09:50 | 32.31500 | 32.99066 | 40064 ft | 446 kts | 307° |
| 2026-04-30 09:50 | 32.35687 | 32.93690 | 40065 ft | 442 kts | 309° |
| 2026-04-30 09:51 | 32.40039 | 32.88546 | 40065 ft | 443 kts | 311° |
| 2026-04-30 09:51 | 32.44439 | 32.83416 | 40066 ft | 444 kts | 311° |
| 2026-04-30 09:52 | 32.48820 | 32.78315 | 40066 ft | 444 kts | 311° |
| 2026-04-30 09:52 | 32.53247 | 32.73146 | 40065 ft | 444 kts | 311° |
| 2026-04-30 09:53 | 32.57605 | 32.68031 | 40065 ft | 443 kts | 311° |
| 2026-04-30 09:53 | 32.62005 | 32.62887 | 40065 ft | 444 kts | 311° |
| 2026-04-30 09:54 | 32.66394 | 32.57716 | 40065 ft | 444 kts | 311° |
| 2026-04-30 09:54 | 32.70772 | 32.52537 | 40064 ft | 444 kts | 311° |
| 2026-04-30 09:55 | 32.75141 | 32.47360 | 40064 ft | 443 kts | 311° |
| 2026-04-30 09:55 | 32.79982 | 32.42842 | 40076 ft | 452 kts | 331° |
| 2026-04-30 09:56 | 32.83045 | 32.41840 | 40068 ft | 461 kts | 347° |
| 2026-04-30 09:56 | 32.86292 | 32.41914 | 40065 ft | 478 kts | 3° |
| 2026-04-30 09:56 | 32.89516 | 32.43075 | 40065 ft | 490 kts | 19° |
| 2026-04-30 09:56 | 32.92416 | 32.45245 | 40065 ft | 497 kts | 34° |
| 2026-04-30 09:57 | 32.94781 | 32.48279 | 40063 ft | 506 kts | 50° |
| 2026-04-30 09:57 | 32.96585 | 32.51911 | 40066 ft | 513 kts | 59° |
| 2026-04-30 09:57 | 32.99774 | 32.59589 | 40059 ft | 520 kts | 58° |
| 2026-04-30 09:58 | 33.01765 | 32.63187 | 40060 ft | 521 kts | 47° |
| 2026-04-30 09:58 | 33.04192 | 32.66393 | 40061 ft | 520 kts | 41° |
| 2026-04-30 09:58 | 33.09463 | 32.72180 | 40061 ft | 516 kts | 37° |
| 2026-04-30 09:59 | 33.19853 | 32.83895 | 40058 ft | 513 kts | 40° |
| 2026-04-30 10:00 | 33.27505 | 32.92804 | 40057 ft | 514 kts | 40° |
| 2026-04-30 10:01 | 33.35189 | 33.01774 | 40057 ft | 515 kts | 40° |
| 2026-04-30 10:02 | 33.42870 | 33.10764 | 40056 ft | 514 kts | 40° |
| 2026-04-30 10:02 | 33.48000 | 33.16744 | 40056 ft | 514 kts | 40° |
| 2026-04-30 10:03 | 33.53078 | 33.22720 | 40056 ft | 514 kts | 40° |
| 2026-04-30 10:03 | 33.58175 | 33.28735 | 40056 ft | 514 kts | 40° |
| 2026-04-30 10:04 | 33.63277 | 33.34762 | 40055 ft | 515 kts | 40° |
| 2026-04-30 10:04 | 33.68380 | 33.40787 | 40055 ft | 514 kts | 40° |
| 2026-04-30 10:05 | 33.73485 | 33.46831 | 40055 ft | 514 kts | 41° |
| 2026-04-30 10:05 | 33.78545 | 33.52854 | 40055 ft | 514 kts | 41° |
| 2026-04-30 10:06 | 33.83632 | 33.58915 | 40054 ft | 515 kts | 41° |
| 2026-04-30 10:06 | 33.88575 | 33.65168 | 40055 ft | 516 kts | 44° |
| 2026-04-30 10:07 | 33.93455 | 33.71503 | 39809 ft | 515 kts | 43° |
| 2026-04-30 10:07 | 33.95899 | 33.74652 | 39149 ft | 513 kts | 44° |
| 2026-04-30 10:07 | 33.98352 | 33.77812 | 38112 ft | 520 kts | 44° |
| 2026-04-30 10:07 | 33.99990 | 33.79920 | 37580 ft | 520 kts | 44° |
| 2026-04-30 10:08 | 34.02459 | 33.83097 | 36867 ft | 518 kts | 44° |
| 2026-04-30 10:08 | 34.04914 | 33.86269 | 36107 ft | 517 kts | 44° |
| 2026-04-30 10:08 | 34.07357 | 33.89430 | 35381 ft | 514 kts | 45° |
| 2026-04-30 10:08 | 34.09790 | 33.92585 | 34666 ft | 511 kts | 45° |
| 2026-04-30 10:09 | 34.12986 | 33.96735 | 33703 ft | 508 kts | 45° |
| 2026-04-30 10:09 | 34.14609 | 33.98844 | 33201 ft | 506 kts | 45° |
| 2026-04-30 10:09 | 34.16971 | 34.01917 | 32448 ft | 504 kts | 45° |
| 2026-04-30 10:09 | 34.19350 | 34.05013 | 31675 ft | 501 kts | 45° |
| 2026-04-30 10:10 | 34.21719 | 34.08099 | 30885 ft | 500 kts | 45° |
| 2026-04-30 10:10 | 34.24084 | 34.11161 | 30168 ft | 496 kts | 45° |
| 2026-04-30 10:10 | 34.26446 | 34.14183 | 29507 ft | 491 kts | 45° |
| 2026-04-30 10:10 | 34.28565 | 34.16927 | 28882 ft | 487 kts | 45° |
| 2026-04-30 10:11 | 34.30860 | 34.19921 | 28211 ft | 483 kts | 45° |
| 2026-04-30 10:11 | 34.33131 | 34.22893 | 27546 ft | 478 kts | 46° |
| 2026-04-30 10:11 | 34.35378 | 34.25837 | 26899 ft | 473 kts | 46° |
| 2026-04-30 10:11 | 34.37571 | 34.28774 | 26262 ft | 466 kts | 49° |
| 2026-04-30 10:12 | 34.39293 | 34.32059 | 25628 ft | 462 kts | 65° |
| 2026-04-30 10:12 | 34.40205 | 34.35755 | 25079 ft | 455 kts | 79° |
| 2026-04-30 10:12 | 34.40395 | 34.39491 | 24747 ft | 444 kts | 91° |
| 2026-04-30 10:12 | 34.40071 | 34.43184 | 24088 ft | 441 kts | 101° |
| 2026-04-30 10:13 | 34.39253 | 34.46753 | 23283 ft | 441 kts | 111° |
| 2026-04-30 10:13 | 34.37968 | 34.50117 | 22529 ft | 439 kts | 119° |
| 2026-04-30 10:13 | 34.36373 | 34.53253 | 21844 ft | 436 kts | 124° |
| 2026-04-30 10:13 | 34.34689 | 34.56280 | 21216 ft | 432 kts | 125° |
| 2026-04-30 10:14 | 34.33016 | 34.59286 | 20574 ft | 428 kts | 125° |
| 2026-04-30 10:14 | 34.31348 | 34.62260 | 19962 ft | 424 kts | 125° |
| 2026-04-30 10:14 | 34.28059 | 34.68104 | 18726 ft | 417 kts | 125° |
| 2026-04-30 10:15 | 34.26383 | 34.70930 | 18093 ft | 411 kts | 129° |
| 2026-04-30 10:15 | 34.24430 | 34.73438 | 17450 ft | 408 kts | 137° |
| 2026-04-30 10:15 | 34.22278 | 34.75637 | 16868 ft | 403 kts | 142° |
| 2026-04-30 10:15 | 34.20045 | 34.77661 | 16295 ft | 398 kts | 145° |
| 2026-04-30 10:16 | 34.17759 | 34.79527 | 15699 ft | 394 kts | 148° |
| 2026-04-30 10:16 | 34.15461 | 34.81268 | 15116 ft | 391 kts | 149° |
| 2026-04-30 10:16 | 34.13140 | 34.82956 | 14535 ft | 387 kts | 150° |
| 2026-04-30 10:17 | 34.08578 | 34.86267 | 13397 ft | 379 kts | 149° |
| 2026-04-30 10:17 | 34.04135 | 34.89514 | 12080 ft | 365 kts | 149° |
| 2026-04-30 10:17 | 34.01962 | 34.91105 | 11123 ft | 364 kts | 149° |
| 2026-04-30 10:18 | 33.99788 | 34.92696 | 10256 ft | 368 kts | 149° |
| 2026-04-30 10:18 | 33.97635 | 34.94272 | 9834 ft | 362 kts | 149° |
| 2026-04-30 10:18 | 33.95525 | 34.95818 | 9718 ft | 343 kts | 149° |
| 2026-04-30 10:19 | 33.91671 | 34.98662 | 9164 ft | 308 kts | 149° |
| 2026-04-30 10:19 | 33.89875 | 34.99984 | 9095 ft | 297 kts | 149° |
| 2026-04-30 10:19 | 33.88144 | 35.01256 | 9027 ft | 286 kts | 149° |
| 2026-04-30 10:19 | 33.86473 | 35.02491 | 8916 ft | 278 kts | 149° |
| 2026-04-30 10:20 | 33.84841 | 35.03694 | 8734 ft | 273 kts | 149° |
| 2026-04-30 10:20 | 33.81631 | 35.06046 | 8249 ft | 268 kts | 149° |
| 2026-04-30 10:20 | 33.80036 | 35.07212 | 7951 ft | 268 kts | 149° |
| 2026-04-30 10:21 | 33.78445 | 35.08372 | 7697 ft | 267 kts | 149° |
| 2026-04-30 10:21 | 33.76862 | 35.09525 | 7433 ft | 266 kts | 149° |
| 2026-04-30 10:21 | 33.75300 | 35.10663 | 7171 ft | 265 kts | 149° |
| 2026-04-30 10:21 | 33.73725 | 35.11809 | 6911 ft | 264 kts | 149° |
| 2026-04-30 10:22 | 33.72159 | 35.12948 | 6646 ft | 263 kts | 149° |
| 2026-04-30 10:22 | 33.70593 | 35.14086 | 6372 ft | 262 kts | 149° |
| 2026-04-30 10:22 | 33.69033 | 35.15220 | 6118 ft | 261 kts | 149° |
| 2026-04-30 10:22 | 33.67482 | 35.16348 | 5863 ft | 260 kts | 149° |
| 2026-04-30 10:23 | 33.65934 | 35.17472 | 5606 ft | 259 kts | 149° |
| 2026-04-30 10:23 | 33.64396 | 35.18589 | 5443 ft | 255 kts | 149° |
| 2026-04-30 10:23 | 33.62924 | 35.19657 | 5419 ft | 240 kts | 149° |
| 2026-04-30 10:23 | 33.61514 | 35.20695 | 5247 ft | 236 kts | 147° |
| 2026-04-30 10:24 | 33.60234 | 35.21961 | 4882 ft | 241 kts | 133° |
| 2026-04-30 10:24 | 33.59427 | 35.23694 | 4601 ft | 239 kts | 110° |
| 2026-04-30 10:24 | 33.59096 | 35.25639 | 4430 ft | 236 kts | 100° |
| 2026-04-30 10:24 | 33.58845 | 35.27529 | 4350 ft | 228 kts | 102° |
| 2026-04-30 10:25 | 33.58576 | 35.29374 | 4303 ft | 222 kts | 97° |
| 2026-04-30 10:25 | 33.58791 | 35.31132 | 4230 ft | 211 kts | 66° |
| 2026-04-30 10:25 | 33.59734 | 35.32418 | 4142 ft | 207 kts | 43° |
| 2026-04-30 10:25 | 33.60896 | 35.33473 | 3901 ft | 212 kts | 37° |
| 2026-04-30 10:26 | 33.62150 | 35.34461 | 3517 ft | 217 kts | 33° |
| 2026-04-30 10:26 | 33.63419 | 35.35417 | 3324 ft | 212 kts | 33° |
| 2026-04-30 10:26 | 33.64633 | 35.36343 | 3250 ft | 203 kts | 33° |
| 2026-04-30 10:26 | 33.65820 | 35.37253 | 3097 ft | 207 kts | 33° |
| 2026-04-30 10:27 | 33.67030 | 35.38186 | 2910 ft | 205 kts | 33° |
| 2026-04-30 10:27 | 33.68197 | 35.39088 | 2731 ft | 191 kts | 33° |
| 2026-04-30 10:27 | 33.69265 | 35.39913 | 2540 ft | 176 kts | 33° |
| 2026-04-30 10:27 | 33.70284 | 35.40701 | 2294 ft | 172 kts | 33° |
| 2026-04-30 10:28 | 33.71282 | 35.41473 | 2061 ft | 170 kts | 33° |
| 2026-04-30 10:28 | 33.72277 | 35.42243 | 1832 ft | 169 kts | 33° |
| 2026-04-30 10:28 | 33.73268 | 35.43009 | 1605 ft | 169 kts | 33° |
| 2026-04-30 10:28 | 33.74254 | 35.43773 | 1379 ft | 167 kts | 33° |
| 2026-04-30 10:29 | 33.75200 | 35.44505 | 1160 ft | 158 kts | 33° |
| 2026-04-30 10:29 | 33.76105 | 35.45206 | 982 ft | 152 kts | 33° |
| 2026-04-30 10:29 | 33.76981 | 35.45882 | 762 ft | 150 kts | 33° |
| 2026-04-30 10:29 | 33.77860 | 35.46557 | 562 ft | 150 kts | 33° |
| 2026-04-30 10:30 | 33.78717 | 35.47237 | 366 ft | 146 kts | 34° |
| 2026-04-30 10:30 | 33.79566 | 35.47886 | 180 ft | 145 kts | 33° |
| 2026-04-30 10:30 | 33.80393 | 35.48525 | 106 ft | 130 kts | 33° |
| 2026-04-30 10:30 | 33.81053 | 35.49037 | 100 ft | 92 kts | 35° |
| 2026-04-30 10:31 | 33.81466 | 35.49364 | 99 ft | 53 kts | 34° |
| 2026-04-30 10:31 | 33.81679 | 35.49527 | 99 ft | 28 kts | 27° |
| 2026-04-30 10:31 | 33.81850 | 35.49590 | 99 ft | 22 kts | 7° |
| 2026-04-30 10:31 | 33.81976 | 35.49600 | 99 ft | 14 kts | 3° |
| 2026-04-30 10:32 | 33.82069 | 35.49606 | 99 ft | 13 kts | 2° |
| 2026-04-30 10:32 | 33.82146 | 35.49613 | 99 ft | 9 kts | 3° |
| 2026-04-30 10:32 | 33.82203 | 35.49589 | 99 ft | 9 kts | 313° |
| 2026-04-30 10:32 | 33.82239 | 35.49531 | 99 ft | 8 kts | 306° |
| 2026-04-30 10:33 | 33.82264 | 35.49492 | 99 ft | 5 kts | 310° |
| 2026-04-30 10:33 | 33.82286 | 35.49461 | 99 ft | 4 kts | 310° |
| 2026-04-30 10:33 | 33.82302 | 35.49439 | 99 ft | 2 kts | 311° |
| 2026-04-30 10:33 | 33.82309 | 35.49429 | 99 ft | 2 kts | 312° |
| 2026-04-30 10:34 | 33.82313 | 35.49424 | 99 ft | 0 kts | 312° |